createdAt,value
2018-04-02T00:00:01.145Z,106.80
2018-04-02T00:01:03.625Z,111.93
2018-04-02T00:02:06.097Z,105.75
2018-04-02T00:03:08.561Z,105.05
2018-04-02T00:04:11.030Z,109.03
2018-04-02T00:05:13.498Z,105.10
2018-04-02T00:06:16.318Z,111.05
2018-04-02T00:07:18.787Z,110.90
2018-04-02T00:08:21.257Z,101.28
2018-04-02T00:09:23.725Z,101.03
2018-04-02T00:10:26.206Z,104.93
2018-04-02T00:11:28.989Z,104.85
2018-04-02T00:12:31.457Z,106.68
2018-04-02T00:13:33.925Z,103.60
2018-04-02T00:14:36.393Z,112.43
2018-04-02T00:15:38.865Z,108.53
2018-04-02T00:16:42.126Z,112.20
2018-04-02T00:17:44.595Z,107.82
2018-04-02T00:18:47.064Z,108.00
2018-04-02T00:19:49.545Z,107.25
2018-04-02T00:20:52.781Z,107.15
2018-04-02T00:21:55.265Z,114.40
2018-04-02T00:22:57.733Z,112.75
2018-04-02T00:24:00.254Z,110.35
2018-04-02T00:25:03.446Z,110.35
2018-04-02T00:26:05.917Z,104.38
2018-04-02T00:27:08.680Z,110.50
2018-04-02T00:28:11.146Z,104.80
2018-04-02T00:29:13.614Z,107.65
2018-04-02T00:30:16.105Z,116.05
2018-04-02T00:31:18.573Z,105.05
2018-04-02T00:32:21.061Z,109.60
2018-04-02T00:33:24.307Z,111.50
2018-04-02T00:34:26.786Z,112.22
2018-04-02T00:35:29.257Z,115.62
2018-04-02T00:36:31.725Z,110.55
2018-04-02T00:37:34.488Z,114.65
2018-04-02T00:38:36.961Z,108.90
2018-04-02T00:39:39.431Z,105.22
2018-04-02T00:40:42.669Z,109.32
2018-04-02T00:41:45.137Z,109.63
2018-04-02T00:42:47.621Z,112.32
2018-04-02T00:43:50.093Z,117.03
2018-04-02T00:44:52.564Z,107.55
2018-04-02T00:45:55.032Z,112.20
2018-04-02T00:46:58.269Z,116.60
2018-04-02T00:48:00.754Z,108.37
2018-04-02T00:49:03.225Z,114.07
2018-04-02T00:50:05.693Z,110.95
2018-04-02T00:51:08.161Z,109.20
2018-04-02T00:52:10.634Z,106.32
2018-04-02T00:53:13.114Z,112.70
2018-04-02T00:54:16.351Z,110.37
2018-04-02T00:55:19.449Z,111.07
2018-04-02T00:56:21.298Z,110.88
2018-04-02T00:57:23.766Z,106.05
2018-04-02T00:58:26.533Z,103.47
2018-04-02T00:59:29.006Z,102.68
2018-04-02T01:00:31.477Z,103.97
2018-04-02T01:01:34.758Z,111.70
2018-04-02T01:02:37.997Z,107.72
2018-04-02T01:03:40.485Z,108.55
2018-04-02T01:04:42.954Z,109.00
2018-04-02T01:05:45.421Z,106.63
2018-04-02T01:06:47.917Z,107.68
2018-04-02T01:07:51.154Z,107.65
2018-04-02T01:08:53.633Z,116.18
2018-04-02T01:09:56.119Z,110.32
2018-04-02T01:10:59.360Z,108.10
2018-04-02T01:12:01.825Z,106.20
2018-04-02T01:13:04.299Z,108.57
2018-04-02T01:14:07.081Z,106.95
2018-04-02T01:15:09.553Z,109.75
2018-04-02T01:16:12.024Z,105.82
2018-04-02T01:17:15.257Z,109.93
2018-04-02T01:18:17.740Z,112.50
2018-04-02T01:19:20.227Z,105.15
2018-04-02T01:20:22.697Z,105.15
2018-04-02T01:21:25.169Z,102.43
2018-04-02T01:22:28.409Z,109.95
2018-04-02T01:23:30.877Z,106.87
2018-04-02T01:24:33.373Z,107.05
2018-04-02T01:25:36.609Z,110.07
2018-04-02T01:26:39.073Z,110.10
2018-04-02T01:27:41.548Z,105.75
2018-04-02T01:28:44.013Z,101.32
2018-04-02T01:29:46.498Z,103.57
2018-04-02T01:30:48.971Z,106.43
2018-04-02T01:31:51.434Z,106.82
2018-04-02T01:32:53.900Z,105.97
2018-04-02T01:33:56.373Z,103.70
2018-04-02T01:34:58.860Z,101.78
2018-04-02T01:36:01.326Z,100.57
2018-04-02T01:37:03.798Z,108.75
2018-04-02T01:38:06.262Z,102.87
2018-04-02T01:39:08.729Z,113.10
2018-04-02T01:40:11.221Z,110.22
2018-04-02T01:41:13.690Z,105.72
2018-04-02T01:42:16.158Z,111.75
2018-04-02T01:43:18.626Z,105.60
2018-04-02T01:44:21.089Z,108.43
2018-04-02T01:45:23.583Z,107.90
2018-04-02T01:46:26.049Z,110.07
2018-04-02T01:47:29.282Z,105.53
2018-04-02T01:48:31.757Z,105.90
2018-04-02T01:49:34.225Z,108.10
2018-04-02T01:50:36.713Z,106.95
2018-04-02T01:51:39.185Z,104.78
2018-04-02T01:52:41.650Z,114.05
2018-04-02T01:53:44.882Z,106.12
2018-04-02T01:54:47.344Z,109.93
2018-04-02T01:55:50.157Z,103.90
2018-04-02T01:56:52.640Z,102.65
2018-04-02T01:57:55.874Z,106.70
2018-04-02T01:58:58.352Z,105.00
2018-04-02T02:00:00.938Z,106.90
2018-04-02T02:01:03.421Z,107.43
2018-04-02T02:02:06.658Z,114.15
2018-04-02T02:03:09.125Z,109.05
2018-04-02T02:04:11.597Z,109.53
2018-04-02T02:05:14.086Z,111.25
2018-04-02T02:06:16.573Z,107.97
2018-04-02T02:07:19.043Z,107.82
2018-04-02T02:08:21.508Z,111.03
2018-04-02T02:09:23.972Z,108.45
2018-04-02T02:10:26.453Z,105.07
2018-04-02T02:11:28.937Z,107.55
2018-04-02T02:12:31.405Z,108.78
2018-04-02T02:13:33.872Z,105.63
2018-04-02T02:14:36.345Z,112.28
2018-04-02T02:15:38.814Z,104.55
2018-04-02T02:16:41.589Z,101.78
2018-04-02T02:17:44.057Z,111.95
2018-04-02T02:18:46.529Z,106.55
2018-04-02T02:19:49.051Z,110.30
2018-04-02T02:20:51.522Z,101.38
2018-04-02T02:21:54.009Z,104.68
2018-04-02T02:22:56.525Z,102.90
2018-04-02T02:23:58.993Z,106.95
2018-04-02T02:25:01.454Z,99.53
2018-04-02T02:26:03.921Z,112.57
2018-04-02T02:27:06.408Z,115.60
2018-04-02T02:28:08.899Z,105.20
2018-04-02T02:29:11.365Z,104.10
2018-04-02T02:30:13.835Z,106.22
2018-04-02T02:31:16.306Z,107.60
2018-04-02T02:32:19.578Z,107.90
2018-04-02T02:33:22.056Z,99.68
2018-04-02T02:34:24.525Z,105.12
2018-04-02T02:35:27.753Z,104.47
2018-04-02T02:36:30.421Z,114.15
2018-04-02T02:37:32.924Z,105.70
2018-04-02T02:38:35.400Z,101.03
2018-04-02T02:39:38.636Z,101.90
2018-04-02T02:40:41.119Z,108.10
2018-04-02T02:41:43.594Z,108.80
2018-04-02T02:42:46.089Z,107.78
2018-04-02T02:43:49.322Z,112.68
2018-04-02T02:44:51.805Z,110.68
2018-04-02T02:45:54.274Z,114.65
2018-04-02T02:46:57.505Z,107.63
2018-04-02T02:47:59.988Z,100.60
2018-04-02T02:49:02.454Z,105.37
2018-04-02T02:50:04.929Z,110.63
2018-04-02T02:51:07.400Z,103.32
2018-04-02T02:52:09.873Z,112.88
2018-04-02T02:53:12.362Z,107.87
2018-04-02T02:54:15.605Z,105.00
2018-04-02T02:55:18.078Z,108.70
2018-04-02T02:56:20.542Z,107.65
2018-04-02T02:57:23.010Z,112.68
2018-04-02T02:58:25.497Z,104.87
2018-04-02T02:59:28.729Z,120.97
2018-04-02T03:00:31.245Z,109.50
2018-04-02T03:01:34.481Z,111.72
2018-04-02T03:02:36.956Z,110.25
2018-04-02T03:03:39.442Z,119.00
2018-04-02T03:04:42.682Z,114.28
2018-04-02T03:05:45.148Z,116.32
2018-04-02T03:06:47.622Z,112.15
2018-04-02T03:07:50.098Z,111.90
2018-04-02T03:08:52.586Z,110.63
2018-04-02T03:09:55.822Z,112.15
2018-04-02T03:10:58.293Z,109.15
2018-04-02T03:12:00.761Z,109.37
2018-04-02T03:13:03.225Z,109.70
2018-04-02T03:14:05.717Z,107.40
2018-04-02T03:15:08.185Z,115.32
2018-04-02T03:16:10.653Z,116.45
2018-04-02T03:17:13.902Z,114.15
2018-04-02T03:18:17.055Z,113.53
2018-04-02T03:19:19.553Z,111.00
2018-04-02T03:20:22.025Z,113.93
2018-04-02T03:21:24.493Z,112.32
2018-04-02T03:22:26.959Z,111.40
2018-04-02T03:23:29.432Z,115.75
2018-04-02T03:24:31.916Z,110.07
2018-04-02T03:25:35.149Z,111.20
2018-04-02T03:26:37.622Z,114.57
2018-04-02T03:27:40.095Z,104.60
2018-04-02T03:28:42.562Z,106.72
2018-04-02T03:29:45.345Z,108.37
2018-04-02T03:30:47.825Z,109.07
2018-04-02T03:31:50.290Z,112.62
2018-04-02T03:32:53.525Z,113.37
2018-04-02T03:33:55.993Z,102.70
2018-04-02T03:34:58.509Z,105.30
2018-04-02T03:36:01.742Z,105.12
2018-04-02T03:37:04.219Z,109.37
2018-04-02T03:38:06.685Z,101.93
2018-04-02T03:39:09.353Z,102.57
2018-04-02T03:40:11.846Z,100.60
2018-04-02T03:41:15.091Z,100.82
2018-04-02T03:42:17.558Z,105.20
2018-04-02T03:43:20.025Z,101.65
2018-04-02T03:44:22.497Z,96.22
2018-04-02T03:45:25.006Z,108.85
2018-04-02T03:46:27.476Z,100.32
2018-04-02T03:47:29.943Z,100.35
2018-04-02T03:48:32.409Z,97.35
2018-04-02T03:49:34.873Z,106.68
2018-04-02T03:50:37.361Z,104.30
2018-04-02T03:51:39.830Z,102.32
2018-04-02T03:52:42.306Z,98.30
2018-04-02T03:53:44.776Z,97.88
2018-04-02T03:54:47.241Z,100.55
2018-04-02T03:55:49.744Z,95.97
2018-04-02T03:56:52.974Z,95.38
2018-04-02T03:57:55.441Z,103.25
2018-04-02T03:58:57.910Z,95.32
2018-04-02T04:00:00.369Z,98.87
2018-04-02T04:01:02.858Z,94.62
2018-04-02T04:02:05.322Z,96.70
2018-04-02T04:03:07.786Z,97.07
2018-04-02T04:04:10.253Z,94.10
2018-04-02T04:05:12.717Z,90.78
2018-04-02T04:06:15.486Z,86.43
2018-04-02T04:07:17.956Z,96.32
2018-04-02T04:08:20.427Z,95.30
2018-04-02T04:09:22.892Z,95.72
2018-04-02T04:10:25.360Z,96.32
2018-04-02T04:11:28.608Z,95.68
2018-04-02T04:12:31.074Z,91.05
2018-04-02T04:13:33.541Z,97.20
2018-04-02T04:14:36.005Z,92.50
2018-04-02T04:15:38.472Z,95.00
2018-04-02T04:16:40.956Z,91.90
2018-04-02T04:17:43.422Z,97.03
2018-04-02T04:18:45.889Z,90.87
2018-04-02T04:19:49.153Z,92.68
2018-04-02T04:20:51.619Z,92.80
2018-04-02T04:21:54.121Z,91.25
2018-04-02T04:22:56.589Z,100.75
2018-04-02T04:23:59.054Z,90.45
2018-04-02T04:25:01.526Z,91.87
2018-04-02T04:26:03.997Z,94.65
2018-04-02T04:27:06.476Z,97.72
2018-04-02T04:28:08.937Z,93.97
2018-04-02T04:29:11.404Z,90.65
2018-04-02T04:30:13.873Z,93.62
2018-04-02T04:31:16.350Z,90.85
2018-04-02T04:32:18.829Z,90.87
2018-04-02T04:33:21.310Z,92.88
2018-04-02T04:34:24.540Z,92.32
2018-04-02T04:35:27.033Z,91.12
2018-04-02T04:36:29.497Z,90.05
2018-04-02T04:37:32.036Z,96.68
2018-04-02T04:38:34.501Z,90.72
2018-04-02T04:39:36.969Z,87.35
2018-04-02T04:40:39.433Z,89.43
2018-04-02T04:41:41.897Z,93.68
2018-04-02T04:42:44.710Z,92.80
2018-04-02T04:43:47.208Z,85.53
2018-04-02T04:44:49.673Z,87.35
2018-04-02T04:45:52.148Z,92.40
2018-04-02T04:46:54.618Z,93.22
2018-04-02T04:47:57.105Z,94.13
2018-04-02T04:48:59.569Z,86.05
2018-04-02T04:50:02.038Z,94.53
2018-04-02T04:51:04.505Z,97.03
2018-04-02T04:52:06.978Z,90.10
2018-04-02T04:53:09.460Z,97.78
2018-04-02T04:54:12.699Z,93.00
2018-04-02T04:55:15.157Z,92.53
2018-04-02T04:56:17.621Z,85.80
2018-04-02T04:57:20.090Z,91.07
2018-04-02T04:58:22.578Z,88.80
2018-04-02T04:59:25.044Z,86.87
2018-04-02T05:00:27.517Z,91.80
2018-04-02T05:01:31.501Z,90.97
2018-04-02T05:02:33.965Z,85.30
2018-04-02T05:03:36.445Z,89.60
2018-04-02T05:04:38.913Z,85.25
2018-04-02T05:05:41.385Z,86.35
2018-04-02T05:06:43.854Z,86.63
2018-04-02T05:07:47.085Z,89.00
2018-04-02T05:08:49.573Z,88.43
2018-04-02T05:09:52.049Z,83.85
2018-04-02T05:10:54.514Z,81.12
2018-04-02T05:11:57.014Z,84.65
2018-04-02T05:12:59.485Z,80.97
2018-04-02T05:14:01.969Z,82.22
2018-04-02T05:15:04.438Z,82.65
2018-04-02T05:16:06.900Z,79.60
2018-04-02T05:17:09.366Z,87.07
2018-04-02T05:19:18.553Z,81.97
2018-04-02T05:20:21.785Z,84.57
2018-04-02T05:21:24.256Z,76.45
2018-04-02T05:22:26.725Z,86.20
2018-04-02T05:23:29.189Z,76.30
2018-04-02T05:24:31.674Z,81.68
2018-04-02T05:25:34.141Z,85.40
2018-04-02T05:26:36.607Z,82.62
2018-04-02T05:27:39.080Z,80.72
2018-04-02T05:28:42.341Z,79.75
2018-04-02T05:29:44.821Z,85.10
2018-04-02T05:30:48.050Z,84.25
2018-04-02T05:31:50.584Z,73.40
2018-04-02T05:32:53.823Z,78.18
2018-04-02T05:33:56.289Z,79.45
2018-04-02T05:34:58.779Z,80.15
2018-04-02T05:36:02.013Z,77.28
2018-04-02T05:37:04.507Z,80.97
2018-04-02T05:38:06.954Z,80.82
2018-04-02T05:39:09.422Z,72.87
2018-04-02T05:40:12.173Z,81.03
2018-04-02T05:41:14.638Z,73.43
2018-04-02T05:42:17.109Z,73.05
2018-04-02T05:43:19.577Z,81.87
2018-04-02T05:44:22.044Z,71.97
2018-04-02T05:45:24.533Z,75.95
2018-04-02T05:46:27.001Z,83.72
2018-04-02T05:47:29.486Z,69.20
2018-04-02T05:48:32.713Z,77.20
2018-04-02T05:49:35.193Z,74.90
2018-04-02T05:50:37.678Z,75.25
2018-04-02T05:51:40.143Z,69.25
2018-04-02T05:52:42.609Z,71.55
2018-04-02T05:53:45.083Z,76.65
2018-04-02T05:54:48.313Z,70.95
2018-04-02T05:55:50.794Z,72.80
2018-04-02T05:56:53.260Z,73.22
2018-04-02T05:57:55.718Z,72.65
2018-04-02T05:58:58.182Z,71.80
2018-04-02T06:00:00.652Z,71.57
2018-04-02T06:01:03.181Z,69.53
2018-04-02T06:02:05.642Z,72.30
2018-04-02T06:03:08.112Z,71.85
2018-04-02T06:04:10.578Z,67.78
2018-04-02T06:05:13.056Z,70.78
2018-04-02T06:06:15.549Z,66.90
2018-04-02T06:07:18.025Z,64.82
2018-04-02T06:08:20.489Z,70.12
2018-04-02T06:09:22.953Z,63.10
2018-04-02T06:10:25.416Z,64.80
2018-04-02T06:11:27.925Z,61.53
2018-04-02T06:12:30.388Z,63.78
2018-04-02T06:13:32.857Z,61.65
2018-04-02T06:14:35.326Z,62.30
2018-04-02T06:15:37.797Z,68.57
2018-04-02T06:16:40.298Z,60.28
2018-04-02T06:17:42.753Z,64.45
2018-04-02T06:18:45.225Z,61.22
2018-04-02T06:19:47.701Z,64.00
2018-04-02T06:20:50.166Z,61.33
2018-04-02T06:21:52.658Z,64.12
2018-04-02T06:22:55.882Z,63.35
2018-04-02T06:23:58.373Z,59.03
2018-04-02T06:25:00.837Z,58.47
2018-04-02T06:26:03.301Z,55.80
2018-04-02T06:27:05.782Z,59.13
2018-04-02T06:28:09.017Z,57.15
2018-04-02T06:29:11.485Z,55.78
2018-04-02T06:30:13.977Z,64.45
2018-04-02T06:31:16.438Z,64.18
2018-04-02T06:32:18.923Z,58.65
2018-04-02T06:33:22.149Z,59.58
2018-04-02T06:34:24.615Z,62.13
2018-04-02T06:35:27.077Z,58.97
2018-04-02T06:36:29.545Z,59.20
2018-04-02T06:37:32.021Z,57.92
2018-04-02T06:38:34.492Z,65.53
2018-04-02T06:39:36.953Z,59.50
2018-04-02T06:40:39.421Z,55.97
2018-04-02T06:41:41.884Z,59.38
2018-04-02T06:42:44.374Z,61.60
2018-04-02T06:43:46.866Z,55.30
2018-04-02T06:44:50.094Z,59.75
2018-04-02T06:45:52.558Z,54.17
2018-04-02T06:46:55.025Z,55.55
2018-04-02T06:47:57.509Z,56.53
2018-04-02T06:48:59.991Z,56.35
2018-04-02T06:50:03.221Z,66.72
2018-04-02T06:51:05.685Z,63.35
2018-04-02T06:52:08.150Z,59.45
2018-04-02T06:53:10.638Z,61.97
2018-04-02T06:54:13.101Z,70.45
2018-04-02T06:55:15.569Z,68.28
2018-04-02T06:56:18.038Z,64.68
2018-04-02T06:57:20.505Z,61.60
2018-04-02T06:58:22.989Z,66.00
2018-04-02T06:59:26.224Z,59.40
2018-04-02T07:00:28.686Z,62.13
2018-04-02T07:01:31.149Z,59.33
2018-04-02T07:02:33.617Z,58.47
2018-04-02T07:03:36.096Z,57.53
2018-04-02T07:04:38.562Z,58.92
2018-04-02T07:05:41.025Z,58.13
2018-04-02T07:06:43.493Z,56.53
2018-04-02T07:07:45.953Z,63.33
2018-04-02T07:08:48.434Z,64.75
2018-04-02T07:09:52.405Z,61.50
2018-04-02T07:10:54.907Z,57.88
2018-04-02T07:11:57.349Z,55.70
2018-04-02T07:13:00.589Z,56.95
2018-04-02T07:14:03.073Z,58.05
2018-04-02T07:15:05.536Z,53.60
2018-04-02T07:16:08.006Z,58.15
2018-04-02T07:17:10.469Z,50.47
2018-04-02T07:18:12.941Z,58.00
2018-04-02T07:19:15.441Z,57.80
2018-04-02T07:20:18.669Z,58.53
2018-04-02T07:21:21.173Z,55.78
2018-04-02T07:22:23.687Z,53.53
2018-04-02T07:23:26.886Z,55.58
2018-04-02T07:24:29.373Z,54.42
2018-04-02T07:25:31.832Z,49.55
2018-04-02T07:26:34.309Z,50.53
2018-04-02T07:27:36.770Z,44.47
2018-04-02T07:28:39.237Z,48.63
2018-04-02T07:29:42.013Z,47.45
2018-04-02T07:30:44.481Z,50.20
2018-04-02T07:31:46.945Z,49.92
2018-04-02T07:32:49.409Z,49.50
2018-04-02T07:33:51.882Z,47.65
2018-04-02T07:34:54.370Z,48.95
2018-04-02T07:35:56.838Z,44.80
2018-04-02T07:36:59.306Z,45.10
2018-04-02T07:38:01.777Z,47.33
2018-04-02T07:39:04.242Z,46.22
2018-04-02T07:40:06.725Z,43.63
2018-04-02T07:41:09.226Z,44.45
2018-04-02T07:42:12.461Z,43.87
2018-04-02T07:43:14.929Z,44.00
2018-04-02T07:44:17.420Z,40.63
2018-04-02T07:45:19.929Z,43.53
2018-04-02T07:46:23.161Z,47.55
2018-04-02T07:47:25.630Z,43.08
2018-04-02T07:48:28.097Z,46.58
2018-04-02T07:49:30.561Z,45.22
2018-04-02T07:50:33.075Z,50.15
2018-04-02T07:51:36.290Z,47.22
2018-04-02T07:52:38.828Z,40.95
2018-04-02T07:53:41.290Z,40.15
2018-04-02T07:54:43.754Z,41.72
2018-04-02T07:55:46.237Z,41.63
2018-04-02T07:56:48.697Z,39.90
2018-04-02T07:57:51.169Z,39.17
2018-04-02T07:58:53.641Z,41.15
2018-04-02T07:59:56.102Z,45.28
2018-04-02T08:00:58.581Z,39.20
2018-04-02T08:02:01.045Z,37.05
2018-04-02T08:03:03.509Z,41.60
2018-04-02T08:04:05.969Z,40.63
2018-04-02T08:05:08.449Z,38.17
2018-04-02T08:06:10.925Z,33.55
2018-04-02T08:07:13.397Z,34.38
2018-04-02T08:08:16.501Z,38.25
2018-04-02T08:09:18.969Z,38.00
2018-04-02T08:10:21.434Z,36.85
2018-04-02T08:11:23.918Z,40.28
2018-04-02T08:12:26.385Z,34.83
2018-04-02T08:13:28.858Z,35.83
2018-04-02T08:14:31.321Z,35.10
2018-04-02T08:15:33.790Z,31.77
2018-04-02T08:16:36.281Z,35.42
2018-04-02T08:17:38.765Z,34.53
2018-04-02T08:18:42.000Z,35.60
2018-04-02T08:19:44.478Z,31.85
2018-04-02T08:20:46.945Z,33.70
2018-04-02T08:21:49.429Z,37.03
2018-04-02T08:22:51.901Z,34.72
2018-04-02T08:23:55.141Z,37.30
2018-04-02T08:24:57.605Z,33.20
2018-04-02T08:26:00.073Z,34.20
2018-04-02T08:27:02.572Z,32.70
2018-04-02T08:28:05.037Z,33.17
2018-04-02T08:29:07.509Z,33.45
2018-04-02T08:30:11.137Z,32.13
2018-04-02T08:31:13.604Z,33.63
2018-04-02T08:32:16.097Z,31.40
2018-04-02T08:33:18.565Z,34.78
2018-04-02T08:34:21.037Z,29.45
2018-04-02T08:35:23.505Z,30.77
2018-04-02T08:36:25.979Z,33.08
2018-04-02T08:37:28.493Z,29.12
2018-04-02T08:38:30.965Z,31.73
2018-04-02T08:39:33.486Z,31.65
2018-04-02T08:40:35.917Z,29.95
2018-04-02T08:41:38.389Z,31.35
2018-04-02T08:42:40.899Z,31.83
2018-04-02T08:43:43.366Z,29.58
2018-04-02T08:44:45.837Z,27.83
2018-04-02T08:45:48.309Z,28.83
2018-04-02T08:46:50.778Z,29.02
2018-04-02T08:47:53.269Z,25.25
2018-04-02T08:48:55.740Z,28.48
2018-04-02T08:49:58.205Z,29.20
2018-04-02T08:51:02.185Z,26.62
2018-04-02T08:52:04.653Z,27.37
2018-04-02T08:53:07.133Z,26.67
2018-04-02T08:54:09.645Z,29.70
2018-04-02T08:55:12.118Z,28.85
2018-04-02T08:56:14.593Z,25.58
2018-04-02T08:57:17.062Z,26.55
2018-04-02T08:58:19.542Z,26.75
2018-04-02T08:59:22.008Z,27.05
2018-04-02T09:00:24.482Z,28.17
2018-04-02T09:01:26.953Z,28.50
2018-04-02T09:02:29.426Z,26.42
2018-04-02T09:03:32.985Z,28.33
2018-04-02T09:04:35.450Z,26.80
2018-04-02T09:05:37.921Z,24.63
2018-04-02T09:06:40.389Z,24.37
2018-04-02T09:07:42.861Z,22.77
2018-04-02T09:08:45.353Z,27.80
2018-04-02T09:09:48.581Z,25.52
2018-04-02T09:10:51.053Z,26.25
2018-04-02T09:11:53.521Z,26.50
2018-04-02T09:12:56.004Z,25.15
2018-04-02T09:13:58.512Z,24.90
2018-04-02T09:15:00.977Z,25.80
2018-04-02T09:16:03.453Z,24.50
2018-04-02T09:17:05.924Z,23.42
2018-04-02T09:18:08.406Z,23.83
2018-04-02T09:19:10.893Z,20.48
2018-04-02T09:20:13.361Z,20.60
2018-04-02T09:21:15.833Z,22.60
2018-04-02T09:22:19.089Z,22.00
2018-04-02T09:23:21.570Z,19.70
2018-04-02T09:24:24.301Z,19.20
2018-04-02T09:25:26.769Z,21.75
2018-04-02T09:26:29.254Z,22.23
2018-04-02T09:27:31.721Z,21.85
2018-04-02T09:28:34.194Z,20.20
2018-04-02T09:29:36.685Z,21.02
2018-04-02T09:30:39.925Z,23.87
2018-04-02T09:31:42.393Z,18.98
2018-04-02T09:32:44.870Z,20.85
2018-04-02T09:33:47.343Z,22.55
2018-04-02T09:34:50.109Z,21.80
2018-04-02T09:35:52.585Z,18.42
2018-04-02T09:36:55.054Z,20.52
2018-04-02T09:37:58.285Z,20.37
2018-04-02T09:39:00.753Z,20.58
2018-04-02T09:40:03.239Z,17.77
2018-04-02T09:41:05.714Z,21.12
2018-04-02T09:42:08.181Z,16.85
2018-04-02T09:43:10.661Z,19.90
2018-04-02T09:44:13.901Z,18.83
2018-04-02T09:45:16.417Z,16.80
2018-04-02T09:46:19.711Z,19.37
2018-04-02T09:47:22.186Z,20.25
2018-04-02T09:48:24.653Z,19.45
2018-04-02T09:49:27.126Z,18.02
2018-04-02T09:50:29.619Z,18.33
2018-04-02T09:51:32.086Z,20.17
2018-04-02T09:52:34.558Z,17.27
2018-04-02T09:53:37.027Z,17.83
2018-04-02T09:54:39.501Z,16.10
2018-04-02T09:55:42.764Z,15.80
2018-04-02T09:56:45.238Z,14.75
2018-04-02T09:57:47.705Z,16.23
2018-04-02T09:58:50.183Z,15.27
2018-04-02T09:59:53.425Z,16.10
2018-04-02T10:01:06.662Z,15.63
2018-04-02T10:02:14.100Z,13.95
2018-04-02T10:03:16.570Z,11.75
2018-04-02T10:04:19.042Z,14.32
2018-04-02T10:05:21.520Z,13.02
2018-04-02T10:06:24.013Z,14.10
2018-04-02T10:07:26.480Z,13.00
2018-04-02T10:08:29.717Z,14.30
2018-04-02T10:09:32.185Z,14.30
2018-04-02T10:10:34.673Z,13.20
2018-04-02T10:11:37.177Z,15.05
2018-04-02T10:12:39.647Z,14.25
2018-04-02T10:13:42.113Z,13.55
2018-04-02T10:14:44.578Z,12.15
2018-04-02T10:15:47.042Z,12.65
2018-04-02T10:16:49.533Z,12.93
2018-04-02T10:17:51.997Z,13.45
2018-04-02T10:18:54.461Z,13.07
2018-04-02T10:19:56.929Z,12.48
2018-04-02T10:20:59.397Z,13.68
2018-04-02T10:22:01.870Z,14.20
2018-04-02T10:23:04.338Z,10.45
2018-04-02T10:24:06.850Z,10.77
2018-04-02T10:25:09.283Z,10.75
2018-04-02T10:26:12.520Z,10.68
2018-04-02T10:27:15.034Z,10.25
2018-04-02T10:28:17.509Z,12.95
2018-04-02T10:29:20.741Z,11.57
2018-04-02T10:30:23.204Z,12.88
2018-04-02T10:31:25.675Z,11.43
2018-04-02T10:32:28.165Z,10.18
2018-04-02T10:33:30.630Z,9.02
2018-04-02T10:34:33.138Z,6.80
2018-04-02T10:35:35.599Z,6.82
2018-04-02T10:36:38.089Z,6.10
2018-04-02T10:37:40.570Z,6.07
2018-04-02T10:38:43.030Z,4.90
2018-04-02T10:39:45.494Z,7.45
2018-04-02T10:40:47.961Z,4.25
2018-04-02T10:41:50.421Z,4.85
2018-04-02T10:42:52.921Z,4.40
2018-04-02T10:43:55.390Z,4.97
2018-04-02T10:44:58.625Z,5.03
2018-04-02T10:46:01.088Z,5.15
2018-04-02T10:47:03.549Z,4.25
2018-04-02T10:48:06.357Z,4.95
2018-04-02T10:49:08.821Z,6.53
2018-04-02T10:50:11.289Z,5.95
2018-04-02T10:51:14.518Z,6.20
2018-04-02T10:52:16.981Z,7.30
2018-04-02T10:53:19.460Z,7.47
2018-04-02T10:54:21.929Z,8.75
2018-04-02T10:55:24.393Z,9.20
2018-04-02T10:56:26.856Z,10.93
2018-04-02T10:57:29.322Z,12.07
2018-04-02T10:58:31.801Z,10.70
2018-04-02T10:59:34.275Z,12.37
2018-04-02T11:00:36.746Z,9.73
2018-04-02T11:01:39.213Z,12.10
2018-04-02T11:02:41.677Z,9.45
2018-04-02T11:03:44.157Z,9.23
2018-04-02T11:04:47.389Z,7.25
2018-04-02T11:05:49.849Z,8.93
2018-04-02T11:06:52.319Z,10.85
2018-04-02T11:07:54.791Z,10.82
2018-04-02T11:08:57.337Z,11.43
2018-04-02T11:09:59.807Z,12.02
2018-04-02T11:11:02.270Z,12.50
2018-04-02T11:12:04.728Z,13.15
2018-04-02T11:13:07.206Z,8.60
2018-04-02T11:14:09.931Z,15.20
2018-04-02T11:15:13.162Z,14.93
2018-04-02T11:16:15.630Z,11.05
2018-04-02T11:17:18.099Z,10.45
2018-04-02T11:18:20.565Z,10.07
2018-04-02T11:19:23.057Z,9.88
2018-04-02T11:20:25.525Z,11.10
2018-04-02T11:21:27.994Z,12.35
2018-04-02T11:22:31.225Z,9.60
2018-04-02T11:23:33.690Z,11.77
2018-04-02T11:24:36.173Z,9.48
2018-04-02T11:25:38.642Z,12.77
2018-04-02T11:26:41.114Z,10.52
2018-04-02T11:27:43.581Z,12.57
2018-04-02T11:28:46.057Z,11.65
2018-04-02T11:29:48.821Z,12.07
2018-04-02T11:30:51.646Z,9.98
2018-04-02T11:31:54.122Z,12.77
2018-04-02T11:32:56.585Z,9.68
2018-04-02T11:33:59.053Z,11.07
2018-04-02T11:35:01.536Z,11.98
2018-04-02T11:36:03.997Z,11.50
2018-04-02T11:37:06.464Z,10.68
2018-04-02T11:38:08.937Z,11.43
2018-04-02T11:39:11.409Z,17.08
2018-04-02T11:40:13.893Z,14.87
2018-04-02T11:41:17.125Z,13.57
2018-04-02T11:42:19.594Z,12.13
2018-04-02T11:43:22.062Z,10.50
2018-04-02T11:44:24.530Z,15.38
2018-04-02T11:45:27.313Z,11.63
2018-04-02T11:46:29.784Z,12.77
2018-04-02T11:47:32.265Z,13.10
2018-04-02T11:48:35.534Z,16.60
2018-04-02T11:49:38.001Z,13.10
2018-04-02T11:50:40.493Z,11.10
2018-04-02T11:51:43.725Z,10.02
2018-04-02T11:52:46.202Z,11.85
2018-04-02T11:53:48.681Z,10.70
2018-04-02T11:54:51.148Z,13.82
2018-04-02T11:55:54.396Z,17.30
2018-04-02T11:56:56.865Z,14.95
2018-04-02T11:57:59.340Z,12.35
2018-04-02T11:59:01.801Z,9.90
2018-04-02T12:00:04.271Z,11.85
2018-04-02T12:01:06.771Z,12.02
2018-04-02T12:02:10.004Z,12.25
2018-04-02T12:03:12.486Z,10.15
2018-04-02T12:04:14.945Z,9.57
2018-04-02T12:05:17.416Z,8.77
2018-04-02T12:06:19.901Z,8.82
2018-04-02T12:07:23.177Z,11.12
2018-04-02T12:08:26.414Z,10.55
2018-04-02T12:09:28.877Z,10.27
2018-04-02T12:10:31.345Z,11.80
2018-04-02T12:11:33.843Z,11.35
2018-04-02T12:12:36.302Z,8.88
2018-04-02T12:13:38.761Z,8.68
2018-04-02T12:14:41.229Z,10.15
2018-04-02T12:15:43.693Z,10.43
2018-04-02T12:16:46.181Z,11.12
2018-04-02T12:17:49.414Z,9.23
2018-04-02T12:18:51.881Z,7.12
2018-04-02T12:19:54.353Z,6.57
2018-04-02T12:20:56.841Z,9.35
2018-04-02T12:21:59.329Z,7.30
2018-04-02T12:23:02.569Z,6.80
2018-04-02T12:24:05.034Z,8.40
2018-04-02T12:25:07.517Z,7.18
2018-04-02T12:26:09.987Z,6.68
2018-04-02T12:27:13.241Z,8.95
2018-04-02T12:28:16.330Z,10.27
2018-04-02T12:29:18.785Z,6.53
2018-04-02T12:30:21.246Z,7.18
2018-04-02T12:31:23.713Z,10.05
2018-04-02T12:32:26.193Z,7.20
2018-04-02T12:33:28.660Z,8.52
2018-04-02T12:34:31.901Z,7.32
2018-04-02T12:35:34.362Z,7.30
2018-04-02T12:36:36.829Z,6.12
2018-04-02T12:37:39.305Z,5.35
2018-04-02T12:38:41.773Z,5.70
2018-04-02T12:39:44.237Z,7.55
2018-04-02T12:40:46.701Z,6.32
2018-04-02T12:41:49.161Z,7.18
2018-04-02T12:42:51.645Z,5.35
2018-04-02T12:43:54.105Z,8.77
2018-04-02T12:44:56.584Z,8.20
2018-04-02T12:45:59.054Z,8.40
2018-04-02T12:47:01.517Z,7.43
2018-04-02T12:48:04.002Z,7.53
2018-04-02T12:49:07.229Z,5.30
2018-04-02T12:50:09.689Z,7.20
2018-04-02T12:51:12.157Z,6.25
2018-04-02T12:52:14.617Z,5.25
2018-04-02T12:53:17.093Z,5.60
2018-04-02T12:54:19.557Z,6.03
2018-04-02T12:55:22.021Z,6.55
2018-04-02T12:56:24.485Z,6.57
2018-04-02T12:57:27.017Z,5.68
2018-04-02T12:58:29.849Z,5.55
2018-04-02T12:59:32.317Z,7.20
2018-04-02T13:00:34.777Z,6.18
2018-04-02T13:01:37.337Z,6.03
2018-04-02T13:02:39.805Z,5.28
2018-04-02T13:03:42.290Z,3.62
2018-04-02T13:04:45.597Z,8.68
2018-04-02T13:05:47.997Z,4.57
2018-04-02T13:06:50.462Z,4.22
2018-04-02T13:07:52.921Z,6.00
2018-04-02T13:08:55.409Z,7.32
2018-04-02T13:09:57.877Z,6.32
2018-04-02T13:11:00.336Z,4.18
2018-04-02T13:12:02.809Z,5.53
2018-04-02T13:13:05.281Z,4.70
2018-04-02T13:14:07.783Z,5.80
2018-04-02T13:15:10.257Z,4.45
2018-04-02T13:16:12.733Z,5.37
2018-04-02T13:17:15.193Z,5.45
2018-04-02T13:18:17.657Z,8.25
2018-04-02T13:19:20.171Z,5.40
2018-04-02T13:20:22.609Z,5.60
2018-04-02T13:21:25.065Z,5.22
2018-04-02T13:22:27.525Z,5.35